sensor_id;sensor_type;location;lat;lon;timestamp;P1;durP1;ratioP1;P2;durP2;ratioP2
23258;SDS011;11798;51.528;7.240;2023-06-10T00:01:01;9.07;;;8.27;;
23258;SDS011;11798;51.528;7.240;2023-06-10T00:03:27;9.23;;;8.37;;
23258;SDS011;11798;51.528;7.240;2023-06-10T00:05:53;9.83;;;8.87;;
23258;SDS011;11798;51.528;7.240;2023-06-10T00:08:19;9.57;;;8.57;;
23258;SDS011;11798;51.528;7.240;2023-06-10T00:10:44;9.40;;;8.40;;
23258;SDS011;11798;51.528;7.240;2023-06-10T00:13:10;9.20;;;8.07;;
23258;SDS011;11798;51.528;7.240;2023-06-10T00:15:39;8.57;;;7.67;;
23258;SDS011;11798;51.528;7.240;2023-06-10T00:18:04;8.77;;;7.90;;
23258;SDS011;11798;51.528;7.240;2023-06-10T00:20:30;9.43;;;8.43;;
23258;SDS011;11798;51.528;7.240;2023-06-10T00:22:57;9.40;;;8.57;;
23258;SDS011;11798;51.528;7.240;2023-06-10T00:25:24;9.50;;;8.60;;
23258;SDS011;11798;51.528;7.240;2023-06-10T00:27:50;9.30;;;8.20;;
23258;SDS011;11798;51.528;7.240;2023-06-10T00:30:16;10.13;;;9.13;;
23258;SDS011;11798;51.528;7.240;2023-06-10T00:32:42;9.80;;;8.60;;
23258;SDS011;11798;51.528;7.240;2023-06-10T00:35:07;10.17;;;8.87;;
23258;SDS011;11798;51.528;7.240;2023-06-10T00:37:33;12.00;;;8.23;;
23258;SDS011;11798;51.528;7.240;2023-06-10T00:40:02;10.43;;;9.43;;
23258;SDS011;11798;51.528;7.240;2023-06-10T00:42:29;10.33;;;9.07;;
23258;SDS011;11798;51.528;7.240;2023-06-10T00:44:54;10.30;;;9.17;;
23258;SDS011;11798;51.528;7.240;2023-06-10T00:47:21;10.17;;;9.23;;
23258;SDS011;11798;51.528;7.240;2023-06-10T00:49:47;10.00;;;9.00;;
23258;SDS011;11798;51.528;7.240;2023-06-10T00:52:14;10.27;;;9.27;;
23258;SDS011;11798;51.528;7.240;2023-06-10T00:54:41;11.20;;;9.33;;
23258;SDS011;11798;51.528;7.240;2023-06-10T00:57:07;10.47;;;9.47;;
23258;SDS011;11798;51.528;7.240;2023-06-10T00:59:33;13.20;;;9.70;;
23258;SDS011;11798;51.528;7.240;2023-06-10T01:01:59;10.10;;;9.10;;
23258;SDS011;11798;51.528;7.240;2023-06-10T01:04:25;10.73;;;9.63;;
23258;SDS011;11798;51.528;7.240;2023-06-10T01:06:57;11.60;;;9.90;;
23258;SDS011;11798;51.528;7.240;2023-06-10T01:09:45;10.60;;;9.50;;
23258;SDS011;11798;51.528;7.240;2023-06-10T01:14:54;11.07;;;10.07;;
23258;SDS011;11798;51.528;7.240;2023-06-10T01:17:20;10.80;;;9.73;;
23258;SDS011;11798;51.528;7.240;2023-06-10T01:19:55;12.30;;;11.00;;
23258;SDS011;11798;51.528;7.240;2023-06-10T01:22:22;12.10;;;10.90;;
23258;SDS011;11798;51.528;7.240;2023-06-10T01:24:49;11.87;;;10.70;;
23258;SDS011;11798;51.528;7.240;2023-06-10T01:27:15;11.23;;;10.13;;
23258;SDS011;11798;51.528;7.240;2023-06-10T01:29:46;11.40;;;10.30;;
23258;SDS011;11798;51.528;7.240;2023-06-10T01:32:21;13.93;;;11.93;;
23258;SDS011;11798;51.528;7.240;2023-06-10T01:34:52;13.60;;;11.23;;
23258;SDS011;11798;51.528;7.240;2023-06-10T01:37:20;14.20;;;12.80;;
23258;SDS011;11798;51.528;7.240;2023-06-10T01:39:49;13.10;;;11.70;;
23258;SDS011;11798;51.528;7.240;2023-06-10T01:42:16;15.33;;;13.00;;
23258;SDS011;11798;51.528;7.240;2023-06-10T01:44:42;14.17;;;12.73;;
23258;SDS011;11798;51.528;7.240;2023-06-10T01:47:08;16.10;;;12.90;;
23258;SDS011;11798;51.528;7.240;2023-06-10T01:49:34;14.27;;;12.90;;
23258;SDS011;11798;51.528;7.240;2023-06-10T01:51:59;14.20;;;12.70;;
23258;SDS011;11798;51.528;7.240;2023-06-10T01:54:25;15.17;;;12.97;;
23258;SDS011;11798;51.528;7.240;2023-06-10T01:56:51;14.90;;;13.03;;
23258;SDS011;11798;51.528;7.240;2023-06-10T01:59:17;15.97;;;13.10;;
23258;SDS011;11798;51.528;7.240;2023-06-10T02:01:42;15.93;;;13.10;;
23258;SDS011;11798;51.528;7.240;2023-06-10T02:04:08;15.60;;;13.30;;
23258;SDS011;11798;51.528;7.240;2023-06-10T02:06:33;14.93;;;13.33;;
23258;SDS011;11798;51.528;7.240;2023-06-10T02:09:00;14.83;;;13.33;;
23258;SDS011;11798;51.528;7.240;2023-06-10T02:11:26;18.47;;;14.37;;
23258;SDS011;11798;51.528;7.240;2023-06-10T02:13:52;15.10;;;13.60;;
23258;SDS011;11798;51.528;7.240;2023-06-10T02:16:17;14.80;;;13.40;;
23258;SDS011;11798;51.528;7.240;2023-06-10T02:18:43;17.50;;;14.17;;
23258;SDS011;11798;51.528;7.240;2023-06-10T02:21:09;16.33;;;14.70;;
23258;SDS011;11798;51.528;7.240;2023-06-10T02:23:35;15.83;;;14.23;;
23258;SDS011;11798;51.528;7.240;2023-06-10T02:26:01;15.83;;;14.23;;
23258;SDS011;11798;51.528;7.240;2023-06-10T02:28:27;15.70;;;13.57;;
23258;SDS011;11798;51.528;7.240;2023-06-10T02:30:52;15.53;;;14.03;;
23258;SDS011;11798;51.528;7.240;2023-06-10T02:33:18;16.50;;;14.07;;
23258;SDS011;11798;51.528;7.240;2023-06-10T02:35:45;17.13;;;14.03;;
23258;SDS011;11798;51.528;7.240;2023-06-10T02:38:10;16.77;;;15.07;;
23258;SDS011;11798;51.528;7.240;2023-06-10T02:40:36;17.30;;;14.93;;
23258;SDS011;11798;51.528;7.240;2023-06-10T02:43:02;16.90;;;14.87;;
23258;SDS011;11798;51.528;7.240;2023-06-10T02:45:27;15.50;;;13.90;;
23258;SDS011;11798;51.528;7.240;2023-06-10T02:47:53;17.53;;;15.70;;
23258;SDS011;11798;51.528;7.240;2023-06-10T02:50:18;17.10;;;15.37;;
23258;SDS011;11798;51.528;7.240;2023-06-10T02:52:44;16.83;;;15.13;;
23258;SDS011;11798;51.528;7.240;2023-06-10T02:55:10;17.63;;;15.17;;
23258;SDS011;11798;51.528;7.240;2023-06-10T02:57:35;17.47;;;15.03;;
23258;SDS011;11798;51.528;7.240;2023-06-10T03:00:01;16.37;;;14.80;;
23258;SDS011;11798;51.528;7.240;2023-06-10T03:02:29;15.73;;;14.10;;
23258;SDS011;11798;51.528;7.240;2023-06-10T03:04:56;17.83;;;14.17;;
23258;SDS011;11798;51.528;7.240;2023-06-10T03:07:22;16.87;;;14.90;;
23258;SDS011;11798;51.528;7.240;2023-06-10T03:09:48;17.43;;;14.60;;
23258;SDS011;11798;51.528;7.240;2023-06-10T03:12:15;16.40;;;14.50;;
23258;SDS011;11798;51.528;7.240;2023-06-10T03:14:41;15.63;;;13.93;;
23258;SDS011;11798;51.528;7.240;2023-06-10T03:17:06;16.63;;;14.97;;
23258;SDS011;11798;51.528;7.240;2023-06-10T03:19:33;17.17;;;15.37;;
23258;SDS011;11798;51.528;7.240;2023-06-10T03:22:09;15.17;;;13.53;;
23258;SDS011;11798;51.528;7.240;2023-06-10T03:24:36;15.47;;;13.87;;
23258;SDS011;11798;51.528;7.240;2023-06-10T03:27:04;15.83;;;14.10;;
23258;SDS011;11798;51.528;7.240;2023-06-10T03:29:34;16.73;;;14.87;;
23258;SDS011;11798;51.528;7.240;2023-06-10T03:32:00;15.80;;;14.13;;
23258;SDS011;11798;51.528;7.240;2023-06-10T03:34:26;15.73;;;13.67;;
23258;SDS011;11798;51.528;7.240;2023-06-10T03:36:52;18.43;;;13.50;;
23258;SDS011;11798;51.528;7.240;2023-06-10T03:39:17;16.97;;;13.43;;
23258;SDS011;11798;51.528;7.240;2023-06-10T03:41:43;16.77;;;14.00;;
23258;SDS011;11798;51.528;7.240;2023-06-10T03:44:09;16.33;;;14.63;;
23258;SDS011;11798;51.528;7.240;2023-06-10T03:46:34;16.93;;;13.90;;
23258;SDS011;11798;51.528;7.240;2023-06-10T03:49:00;16.70;;;14.37;;
23258;SDS011;11798;51.528;7.240;2023-06-10T03:51:26;15.13;;;13.53;;
23258;SDS011;11798;51.528;7.240;2023-06-10T03:53:52;15.90;;;14.13;;
23258;SDS011;11798;51.528;7.240;2023-06-10T03:56:18;16.43;;;13.03;;
23258;SDS011;11798;51.528;7.240;2023-06-10T03:58:43;15.07;;;13.53;;
23258;SDS011;11798;51.528;7.240;2023-06-10T04:01:09;15.47;;;13.87;;
23258;SDS011;11798;51.528;7.240;2023-06-10T04:03:35;15.57;;;13.97;;
23258;SDS011;11798;51.528;7.240;2023-06-10T04:06:01;19.13;;;14.73;;
23258;SDS011;11798;51.528;7.240;2023-06-10T04:08:27;17.77;;;14.93;;
23258;SDS011;11798;51.528;7.240;2023-06-10T04:10:53;18.47;;;15.40;;
23258;SDS011;11798;51.528;7.240;2023-06-10T04:13:18;16.63;;;14.90;;
23258;SDS011;11798;51.528;7.240;2023-06-10T04:15:44;17.80;;;15.97;;
23258;SDS011;11798;51.528;7.240;2023-06-10T04:18:10;17.03;;;14.67;;
23258;SDS011;11798;51.528;7.240;2023-06-10T04:20:36;19.13;;;14.53;;
23258;SDS011;11798;51.528;7.240;2023-06-10T04:23:01;15.47;;;13.30;;
23258;SDS011;11798;51.528;7.240;2023-06-10T04:25:27;15.33;;;12.93;;
23258;SDS011;11798;51.528;7.240;2023-06-10T04:27:53;17.47;;;13.00;;
23258;SDS011;11798;51.528;7.240;2023-06-10T04:30:19;18.40;;;13.57;;
23258;SDS011;11798;51.528;7.240;2023-06-10T04:32:45;13.80;;;12.17;;
23258;SDS011;11798;51.528;7.240;2023-06-10T04:35:12;14.33;;;12.50;;
23258;SDS011;11798;51.528;7.240;2023-06-10T04:37:39;14.07;;;12.40;;
23258;SDS011;11798;51.528;7.240;2023-06-10T04:40:06;15.37;;;11.63;;
23258;SDS011;11798;51.528;7.240;2023-06-10T04:42:32;13.57;;;11.30;;
23258;SDS011;11798;51.528;7.240;2023-06-10T04:44:58;14.03;;;12.17;;
23258;SDS011;11798;51.528;7.240;2023-06-10T04:47:24;12.90;;;10.60;;
23258;SDS011;11798;51.528;7.240;2023-06-10T04:49:50;13.20;;;10.53;;
23258;SDS011;11798;51.528;7.240;2023-06-10T04:52:16;12.63;;;10.37;;
23258;SDS011;11798;51.528;7.240;2023-06-10T04:54:42;10.90;;;9.73;;
23258;SDS011;11798;51.528;7.240;2023-06-10T04:57:08;12.53;;;10.00;;
23258;SDS011;11798;51.528;7.240;2023-06-10T04:59:34;13.10;;;9.97;;
23258;SDS011;11798;51.528;7.240;2023-06-10T05:02:06;11.00;;;9.77;;
23258;SDS011;11798;51.528;7.240;2023-06-10T05:04:32;11.17;;;9.43;;
23258;SDS011;11798;51.528;7.240;2023-06-10T05:06:57;12.43;;;8.80;;
23258;SDS011;11798;51.528;7.240;2023-06-10T05:09:23;14.17;;;9.27;;
23258;SDS011;11798;51.528;7.240;2023-06-10T05:11:48;12.63;;;9.13;;
23258;SDS011;11798;51.528;7.240;2023-06-10T05:14:14;10.97;;;9.20;;
23258;SDS011;11798;51.528;7.240;2023-06-10T05:16:41;12.60;;;9.10;;
23258;SDS011;11798;51.528;7.240;2023-06-10T05:19:08;11.63;;;9.03;;
23258;SDS011;11798;51.528;7.240;2023-06-10T05:21:34;11.40;;;8.67;;
23258;SDS011;11798;51.528;7.240;2023-06-10T05:23:59;10.97;;;8.77;;
23258;SDS011;11798;51.528;7.240;2023-06-10T05:26:25;12.20;;;9.27;;
23258;SDS011;11798;51.528;7.240;2023-06-10T05:28:51;9.80;;;8.80;;
23258;SDS011;11798;51.528;7.240;2023-06-10T05:31:17;9.67;;;8.70;;
23258;SDS011;11798;51.528;7.240;2023-06-10T05:33:43;12.13;;;9.53;;
23258;SDS011;11798;51.528;7.240;2023-06-10T05:36:08;12.70;;;9.67;;
23258;SDS011;11798;51.528;7.240;2023-06-10T05:38:34;10.97;;;8.77;;
23258;SDS011;11798;51.528;7.240;2023-06-10T05:41:00;12.33;;;9.13;;
23258;SDS011;11798;51.528;7.240;2023-06-10T05:43:25;11.17;;;8.53;;
23258;SDS011;11798;51.528;7.240;2023-06-10T05:45:51;9.53;;;8.53;;
23258;SDS011;11798;51.528;7.240;2023-06-10T05:48:17;9.73;;;8.30;;
23258;SDS011;11798;51.528;7.240;2023-06-10T05:50:43;12.53;;;8.80;;
23258;SDS011;11798;51.528;7.240;2023-06-10T05:53:13;12.70;;;8.90;;
23258;SDS011;11798;51.528;7.240;2023-06-10T05:55:43;9.37;;;8.47;;
23258;SDS011;11798;51.528;7.240;2023-06-10T05:58:10;9.60;;;8.60;;
23258;SDS011;11798;51.528;7.240;2023-06-10T06:00:37;10.73;;;8.27;;
23258;SDS011;11798;51.528;7.240;2023-06-10T06:03:07;13.43;;;8.80;;
23258;SDS011;11798;51.528;7.240;2023-06-10T06:05:36;8.77;;;7.87;;
23258;SDS011;11798;51.528;7.240;2023-06-10T06:08:03;10.23;;;8.07;;
23258;SDS011;11798;51.528;7.240;2023-06-10T06:10:29;11.23;;;8.07;;
23258;SDS011;11798;51.528;7.240;2023-06-10T06:12:55;8.83;;;7.93;;
23258;SDS011;11798;51.528;7.240;2023-06-10T06:15:21;9.80;;;7.20;;
23258;SDS011;11798;51.528;7.240;2023-06-10T06:17:46;11.40;;;7.97;;
23258;SDS011;11798;51.528;7.240;2023-06-10T06:20:12;11.73;;;8.53;;
23258;SDS011;11798;51.528;7.240;2023-06-10T06:22:38;10.07;;;8.10;;
23258;SDS011;11798;51.528;7.240;2023-06-10T06:25:03;9.63;;;7.90;;
23258;SDS011;11798;51.528;7.240;2023-06-10T06:27:30;9.13;;;7.47;;
23258;SDS011;11798;51.528;7.240;2023-06-10T06:29:56;8.63;;;7.80;;
23258;SDS011;11798;51.528;7.240;2023-06-10T06:32:21;10.40;;;7.97;;
23258;SDS011;11798;51.528;7.240;2023-06-10T06:34:47;10.03;;;8.03;;
23258;SDS011;11798;51.528;7.240;2023-06-10T06:37:18;11.67;;;7.70;;
23258;SDS011;11798;51.528;7.240;2023-06-10T06:39:49;10.20;;;7.20;;
23258;SDS011;11798;51.528;7.240;2023-06-10T06:42:15;8.73;;;7.13;;
23258;SDS011;11798;51.528;7.240;2023-06-10T06:44:41;10.93;;;6.83;;
23258;SDS011;11798;51.528;7.240;2023-06-10T06:47:07;9.87;;;7.27;;
23258;SDS011;11798;51.528;7.240;2023-06-10T06:49:33;8.43;;;7.10;;
23258;SDS011;11798;51.528;7.240;2023-06-10T06:51:58;7.77;;;6.97;;
23258;SDS011;11798;51.528;7.240;2023-06-10T06:54:24;9.00;;;6.60;;
23258;SDS011;11798;51.528;7.240;2023-06-10T06:56:50;8.93;;;6.50;;
23258;SDS011;11798;51.528;7.240;2023-06-10T06:59:15;8.23;;;7.00;;
23258;SDS011;11798;51.528;7.240;2023-06-10T07:01:44;11.50;;;6.87;;
23258;SDS011;11798;51.528;7.240;2023-06-10T07:04:10;8.50;;;6.85;;
23258;SDS011;11798;51.528;7.240;2023-06-10T07:06:35;8.45;;;6.55;;
23258;SDS011;11798;51.528;7.240;2023-06-10T07:09:01;8.70;;;6.10;;
23258;SDS011;11798;51.528;7.240;2023-06-10T07:11:27;8.63;;;6.18;;
23258;SDS011;11798;51.528;7.240;2023-06-10T07:13:52;11.65;;;6.78;;
23258;SDS011;11798;51.528;7.240;2023-06-10T07:16:18;7.72;;;6.43;;
23258;SDS011;11798;51.528;7.240;2023-06-10T07:18:45;7.35;;;6.13;;
23258;SDS011;11798;51.528;7.240;2023-06-10T07:21:11;11.48;;;6.53;;
23258;SDS011;11798;51.528;7.240;2023-06-10T07:23:36;7.95;;;6.38;;
23258;SDS011;11798;51.528;7.240;2023-06-10T07:26:02;10.10;;;6.88;;
23258;SDS011;11798;51.528;7.240;2023-06-10T07:28:28;9.57;;;7.03;;
23258;SDS011;11798;51.528;7.240;2023-06-10T07:30:53;7.78;;;6.10;;
23258;SDS011;11798;51.528;7.240;2023-06-10T07:33:19;7.65;;;6.82;;
23258;SDS011;11798;51.528;7.240;2023-06-10T07:35:45;10.00;;;6.70;;
23258;SDS011;11798;51.528;7.240;2023-06-10T07:38:10;10.20;;;6.80;;
23258;SDS011;11798;51.528;7.240;2023-06-10T07:40:36;7.90;;;6.13;;
23258;SDS011;11798;51.528;7.240;2023-06-10T07:43:01;8.63;;;6.10;;
23258;SDS011;11798;51.528;7.240;2023-06-10T07:45:27;8.48;;;5.82;;
23258;SDS011;11798;51.528;7.240;2023-06-10T07:47:53;8.88;;;6.38;;
23258;SDS011;11798;51.528;7.240;2023-06-10T07:50:18;7.95;;;5.43;;
23258;SDS011;11798;51.528;7.240;2023-06-10T07:52:44;7.85;;;6.55;;
23258;SDS011;11798;51.528;7.240;2023-06-10T07:55:10;10.75;;;6.03;;
23258;SDS011;11798;51.528;7.240;2023-06-10T07:57:35;7.20;;;6.50;;
23258;SDS011;11798;51.528;7.240;2023-06-10T08:00:03;11.05;;;6.28;;
23258;SDS011;11798;51.528;7.240;2023-06-10T08:02:31;7.80;;;6.18;;
23258;SDS011;11798;51.528;7.240;2023-06-10T08:04:56;7.00;;;5.88;;
23258;SDS011;11798;51.528;7.240;2023-06-10T08:07:22;6.53;;;5.40;;
23258;SDS011;11798;51.528;7.240;2023-06-10T08:09:48;7.38;;;6.45;;
23258;SDS011;11798;51.528;7.240;2023-06-10T08:12:14;8.85;;;6.18;;
23258;SDS011;11798;51.528;7.240;2023-06-10T08:14:40;7.90;;;5.93;;
23258;SDS011;11798;51.528;7.240;2023-06-10T08:17:05;8.85;;;6.18;;
23258;SDS011;11798;51.528;7.240;2023-06-10T08:19:31;9.02;;;6.25;;
23258;SDS011;11798;51.528;7.240;2023-06-10T08:21:57;8.95;;;5.97;;
23258;SDS011;11798;51.528;7.240;2023-06-10T08:24:22;8.07;;;6.85;;
23258;SDS011;11798;51.528;7.240;2023-06-10T08:26:48;10.40;;;6.28;;
23258;SDS011;11798;51.528;7.240;2023-06-10T08:29:13;7.78;;;5.75;;
23258;SDS011;11798;51.528;7.240;2023-06-10T08:31:42;8.70;;;6.38;;
23258;SDS011;11798;51.528;7.240;2023-06-10T08:34:09;9.32;;;6.18;;
23258;SDS011;11798;51.528;7.240;2023-06-10T08:36:35;8.00;;;5.78;;
23258;SDS011;11798;51.528;7.240;2023-06-10T08:39:00;7.93;;;5.97;;
23258;SDS011;11798;51.528;7.240;2023-06-10T08:41:28;9.57;;;5.93;;
23258;SDS011;11798;51.528;7.240;2023-06-10T08:44:09;8.30;;;6.10;;
23258;SDS011;11798;51.528;7.240;2023-06-10T08:46:45;11.93;;;6.22;;
23258;SDS011;11798;51.528;7.240;2023-06-10T08:49:17;7.55;;;6.72;;
23258;SDS011;11798;51.528;7.240;2023-06-10T08:51:47;7.25;;;5.85;;
23258;SDS011;11798;51.528;7.240;2023-06-10T08:54:17;7.13;;;5.90;;
23258;SDS011;11798;51.528;7.240;2023-06-10T08:56:45;8.63;;;6.10;;
23258;SDS011;11798;51.528;7.240;2023-06-10T08:59:15;8.23;;;6.00;;
23258;SDS011;11798;51.528;7.240;2023-06-10T09:01:41;10.05;;;5.82;;
23258;SDS011;11798;51.528;7.240;2023-06-10T09:04:08;8.73;;;6.78;;
23258;SDS011;11798;51.528;7.240;2023-06-10T09:06:34;8.45;;;6.72;;
23258;SDS011;11798;51.528;7.240;2023-06-10T09:09:01;7.72;;;6.43;;
23258;SDS011;11798;51.528;7.240;2023-06-10T09:11:27;8.00;;;6.30;;
23258;SDS011;11798;51.528;7.240;2023-06-10T09:13:53;7.20;;;5.93;;
23258;SDS011;11798;51.528;7.240;2023-06-10T09:16:19;7.53;;;6.32;;
23258;SDS011;11798;51.528;7.240;2023-06-10T09:18:44;8.70;;;6.45;;
23258;SDS011;11798;51.528;7.240;2023-06-10T09:21:10;7.90;;;6.22;;
23258;SDS011;11798;51.528;7.240;2023-06-10T09:23:36;7.65;;;6.28;;
23258;SDS011;11798;51.528;7.240;2023-06-10T09:26:02;8.43;;;6.75;;
23258;SDS011;11798;51.528;7.240;2023-06-10T09:28:33;7.68;;;6.72;;
23258;SDS011;11798;51.528;7.240;2023-06-10T09:31:03;7.82;;;6.40;;
23258;SDS011;11798;51.528;7.240;2023-06-10T09:33:30;9.10;;;6.55;;
23258;SDS011;11798;51.528;7.240;2023-06-10T09:35:56;9.40;;;6.88;;
23258;SDS011;11798;51.528;7.240;2023-06-10T09:38:28;7.05;;;6.20;;
23258;SDS011;11798;51.528;7.240;2023-06-10T09:40:56;8.23;;;6.55;;
23258;SDS011;11798;51.528;7.240;2023-06-10T09:43:21;10.65;;;5.80;;
23258;SDS011;11798;51.528;7.240;2023-06-10T09:45:47;7.55;;;5.82;;
23258;SDS011;11798;51.528;7.240;2023-06-10T09:48:14;10.75;;;6.78;;
23258;SDS011;11798;51.528;7.240;2023-06-10T09:50:43;7.10;;;6.40;;
23258;SDS011;11798;51.528;7.240;2023-06-10T09:53:10;7.70;;;6.72;;
23258;SDS011;11798;51.528;7.240;2023-06-10T09:55:39;9.38;;;7.22;;
23258;SDS011;11798;51.528;7.240;2023-06-10T09:58:06;6.72;;;5.88;;
23258;SDS011;11798;51.528;7.240;2023-06-10T10:00:32;7.57;;;6.70;;
23258;SDS011;11798;51.528;7.240;2023-06-10T10:02:59;9.68;;;6.53;;
23258;SDS011;11798;51.528;7.240;2023-06-10T10:05:24;7.22;;;6.47;;
23258;SDS011;11798;51.528;7.240;2023-06-10T10:07:51;9.20;;;6.88;;
23258;SDS011;11798;51.528;7.240;2023-06-10T10:10:18;8.60;;;6.85;;
23258;SDS011;11798;51.528;7.240;2023-06-10T10:15:16;7.95;;;6.97;;
23258;SDS011;11798;51.528;7.240;2023-06-10T10:20:17;10.05;;;6.88;;
23258;SDS011;11798;51.528;7.240;2023-06-10T10:22:47;7.57;;;6.60;;
23258;SDS011;11798;51.528;7.240;2023-06-10T10:25:23;8.68;;;6.90;;
23258;SDS011;11798;51.528;7.240;2023-06-10T10:28:11;8.18;;;6.78;;
23258;SDS011;11798;51.528;7.240;2023-06-10T10:30:39;10.70;;;6.80;;
23258;SDS011;11798;51.528;7.240;2023-06-10T10:33:12;7.85;;;6.55;;
23258;SDS011;11798;51.528;7.240;2023-06-10T15:30:11;8.50;;;6.95;;
23258;SDS011;11798;51.528;7.240;2023-06-10T15:32:37;8.13;;;6.80;;
23258;SDS011;11798;51.528;7.240;2023-06-10T15:35:03;7.40;;;6.47;;
23258;SDS011;11798;51.528;7.240;2023-06-10T15:37:29;6.55;;;5.90;;
23258;SDS011;11798;51.528;7.240;2023-06-10T15:39:54;6.45;;;5.95;;
23258;SDS011;11798;51.528;7.240;2023-06-10T15:42:20;7.20;;;6.60;;
23258;SDS011;11798;51.528;7.240;2023-06-10T15:44:46;7.25;;;6.55;;
23258;SDS011;11798;51.528;7.240;2023-06-10T15:47:12;6.70;;;6.00;;
23258;SDS011;11798;51.528;7.240;2023-06-10T15:49:37;6.78;;;5.93;;
23258;SDS011;11798;51.528;7.240;2023-06-10T15:52:03;6.78;;;6.18;;
23258;SDS011;11798;51.528;7.240;2023-06-10T15:54:29;6.90;;;6.20;;
23258;SDS011;11798;51.528;7.240;2023-06-10T15:56:56;6.97;;;6.38;;
23258;SDS011;11798;51.528;7.240;2023-06-10T15:59:21;7.40;;;6.70;;
23258;SDS011;11798;51.528;7.240;2023-06-10T16:01:47;7.45;;;6.55;;
23258;SDS011;11798;51.528;7.240;2023-06-10T16:04:12;6.82;;;6.10;;
23258;SDS011;11798;51.528;7.240;2023-06-10T16:06:38;6.88;;;6.25;;
23258;SDS011;11798;51.528;7.240;2023-06-10T16:09:04;8.48;;;6.75;;
23258;SDS011;11798;51.528;7.240;2023-06-10T16:11:30;8.00;;;6.22;;
23258;SDS011;11798;51.528;7.240;2023-06-10T16:13:55;7.05;;;6.43;;
23258;SDS011;11798;51.528;7.240;2023-06-10T16:16:21;6.43;;;5.82;;
23258;SDS011;11798;51.528;7.240;2023-06-10T16:18:47;6.68;;;6.07;;
23258;SDS011;11798;51.528;7.240;2023-06-10T16:21:12;7.72;;;6.82;;
23258;SDS011;11798;51.528;7.240;2023-06-10T16:23:38;9.48;;;5.88;;
23258;SDS011;11798;51.528;7.240;2023-06-10T16:26:04;7.25;;;6.35;;
23258;SDS011;11798;51.528;7.240;2023-06-10T16:28:29;8.52;;;6.20;;
23258;SDS011;11798;51.528;7.240;2023-06-10T16:30:55;7.40;;;6.70;;
23258;SDS011;11798;51.528;7.240;2023-06-10T16:33:21;7.25;;;6.63;;
23258;SDS011;11798;51.528;7.240;2023-06-10T16:35:47;7.40;;;6.70;;
23258;SDS011;11798;51.528;7.240;2023-06-10T16:38:12;7.50;;;6.85;;
23258;SDS011;11798;51.528;7.240;2023-06-10T16:40:38;7.13;;;6.35;;
23258;SDS011;11798;51.528;7.240;2023-06-10T16:43:03;7.35;;;6.70;;
23258;SDS011;11798;51.528;7.240;2023-06-10T16:45:29;8.80;;;6.90;;
23258;SDS011;11798;51.528;7.240;2023-06-10T16:47:54;8.98;;;7.18;;
23258;SDS011;11798;51.528;7.240;2023-06-10T16:50:21;7.60;;;6.90;;
23258;SDS011;11798;51.528;7.240;2023-06-10T16:52:46;7.55;;;6.85;;
23258;SDS011;11798;51.528;7.240;2023-06-10T16:55:12;7.43;;;6.70;;
23258;SDS011;11798;51.528;7.240;2023-06-10T16:57:37;7.35;;;6.72;;
23258;SDS011;11798;51.528;7.240;2023-06-10T17:00:03;8.50;;;7.45;;
23258;SDS011;11798;51.528;7.240;2023-06-10T17:02:31;10.30;;;7.13;;
23258;SDS011;11798;51.528;7.240;2023-06-10T17:04:56;9.05;;;7.75;;
23258;SDS011;11798;51.528;7.240;2023-06-10T17:07:23;7.93;;;7.13;;
23258;SDS011;11798;51.528;7.240;2023-06-10T17:09:48;8.60;;;7.50;;
23258;SDS011;11798;51.528;7.240;2023-06-10T17:12:14;8.13;;;7.32;;
23258;SDS011;11798;51.528;7.240;2023-06-10T17:14:40;10.75;;;7.55;;
23258;SDS011;11798;51.528;7.240;2023-06-10T17:17:05;10.32;;;7.65;;
23258;SDS011;11798;51.528;7.240;2023-06-10T17:19:31;12.95;;;7.82;;
23258;SDS011;11798;51.528;7.240;2023-06-10T17:21:57;8.50;;;7.63;;
23258;SDS011;11798;51.528;7.240;2023-06-10T17:24:22;8.32;;;7.53;;
23258;SDS011;11798;51.528;7.240;2023-06-10T17:26:48;7.82;;;6.93;;
23258;SDS011;11798;51.528;7.240;2023-06-10T17:29:14;8.10;;;7.05;;
23258;SDS011;11798;51.528;7.240;2023-06-10T17:31:40;8.20;;;7.40;;
23258;SDS011;11798;51.528;7.240;2023-06-10T17:34:06;8.70;;;7.35;;
23258;SDS011;11798;51.528;7.240;2023-06-10T17:36:31;7.50;;;6.80;;
23258;SDS011;11798;51.528;7.240;2023-06-10T17:38:57;8.00;;;7.32;;
23258;SDS011;11798;51.528;7.240;2023-06-10T17:41:22;8.02;;;7.32;;
23258;SDS011;11798;51.528;7.240;2023-06-10T17:43:48;8.07;;;7.35;;
23258;SDS011;11798;51.528;7.240;2023-06-10T17:46:13;8.13;;;7.53;;
23258;SDS011;11798;51.528;7.240;2023-06-10T17:48:39;8.38;;;6.78;;
23258;SDS011;11798;51.528;7.240;2023-06-10T17:51:05;8.50;;;7.13;;
23258;SDS011;11798;51.528;7.240;2023-06-10T17:53:30;8.27;;;7.47;;
23258;SDS011;11798;51.528;7.240;2023-06-10T17:55:56;9.02;;;8.13;;
23258;SDS011;11798;51.528;7.240;2023-06-10T17:58:22;9.98;;;8.63;;
23258;SDS011;11798;51.528;7.240;2023-06-10T18:00:48;7.53;;;6.80;;
23258;SDS011;11798;51.528;7.240;2023-06-10T18:03:14;10.57;;;7.80;;
23258;SDS011;11798;51.528;7.240;2023-06-10T18:05:42;8.75;;;7.85;;
23258;SDS011;11798;51.528;7.240;2023-06-10T18:08:08;12.07;;;7.95;;
23258;SDS011;11798;51.528;7.240;2023-06-10T18:10:34;10.27;;;7.82;;
23258;SDS011;11798;51.528;7.240;2023-06-10T18:13:00;8.63;;;7.90;;
23258;SDS011;11798;51.528;7.240;2023-06-10T18:15:26;9.13;;;8.23;;
23258;SDS011;11798;51.528;7.240;2023-06-10T18:17:52;8.75;;;7.88;;
23258;SDS011;11798;51.528;7.240;2023-06-10T18:20:17;10.10;;;7.88;;
23258;SDS011;11798;51.528;7.240;2023-06-10T18:22:43;9.20;;;7.82;;
23258;SDS011;11798;51.528;7.240;2023-06-10T18:25:08;9.00;;;8.18;;
23258;SDS011;11798;51.528;7.240;2023-06-10T18:27:34;10.55;;;8.60;;
23258;SDS011;11798;51.528;7.240;2023-06-10T18:30:00;9.52;;;8.63;;
23258;SDS011;11798;51.528;7.240;2023-06-10T18:32:26;9.77;;;8.77;;
23258;SDS011;11798;51.528;7.240;2023-06-10T18:34:52;11.70;;;8.52;;
23258;SDS011;11798;51.528;7.240;2023-06-10T18:37:18;10.57;;;9.07;;
23258;SDS011;11798;51.528;7.240;2023-06-10T21:05:26;9.02;;;8.20;;
23258;SDS011;11798;51.528;7.240;2023-06-10T21:07:51;10.90;;;7.85;;
23258;SDS011;11798;51.528;7.240;2023-06-10T21:10:17;9.02;;;8.13;;
23258;SDS011;11798;51.528;7.240;2023-06-10T21:12:42;9.23;;;7.85;;
23258;SDS011;11798;51.528;7.240;2023-06-10T21:15:08;9.50;;;8.48;;
23258;SDS011;11798;51.528;7.240;2023-06-10T21:17:34;9.38;;;7.65;;
23258;SDS011;11798;51.528;7.240;2023-06-10T21:19:59;8.77;;;7.68;;
23258;SDS011;11798;51.528;7.240;2023-06-10T21:22:25;9.00;;;8.10;;
23258;SDS011;11798;51.528;7.240;2023-06-10T21:24:50;9.73;;;8.70;;
23258;SDS011;11798;51.528;7.240;2023-06-10T21:27:16;9.30;;;8.23;;
23258;SDS011;11798;51.528;7.240;2023-06-10T21:29:42;9.10;;;8.20;;
23258;SDS011;11798;51.528;7.240;2023-06-10T21:32:08;9.10;;;8.30;;
23258;SDS011;11798;51.528;7.240;2023-06-10T21:34:35;8.90;;;7.40;;
23258;SDS011;11798;51.528;7.240;2023-06-10T21:37:01;10.90;;;8.85;;
23258;SDS011;11798;51.528;7.240;2023-06-10T21:39:26;9.73;;;8.82;;
23258;SDS011;11798;51.528;7.240;2023-06-10T21:41:52;10.80;;;9.05;;
23258;SDS011;11798;51.528;7.240;2023-06-10T21:44:18;9.38;;;8.48;;
23258;SDS011;11798;51.528;7.240;2023-06-10T21:46:43;9.80;;;8.90;;
23258;SDS011;11798;51.528;7.240;2023-06-10T21:49:09;8.85;;;8.02;;
23258;SDS011;11798;51.528;7.240;2023-06-10T21:51:35;9.25;;;8.27;;
23258;SDS011;11798;51.528;7.240;2023-06-10T21:54:00;10.00;;;9.10;;
23258;SDS011;11798;51.528;7.240;2023-06-10T21:56:26;10.70;;;9.30;;
23258;SDS011;11798;51.528;7.240;2023-06-10T21:58:56;10.75;;;9.65;;
23258;SDS011;11798;51.528;7.240;2023-06-10T22:01:28;10.50;;;9.40;;